sensor_id;sensor_type;location;lat;lon;timestamp;pressure;altitude;pressure_sealevel;temperature;humidity
26807;BME280;14380;49.910;6.792;2023-06-19T00:00:42;98253.19;;;21.67;94.87
26807;BME280;14380;49.910;6.792;2023-06-19T00:03:09;98248.47;;;21.78;93.55
26807;BME280;14380;49.910;6.792;2023-06-19T00:05:36;98250.50;;;21.76;94.63
26807;BME280;14380;49.910;6.792;2023-06-19T00:08:02;98235.19;;;21.35;98.33
26807;BME280;14380;49.910;6.792;2023-06-19T00:10:31;98239.22;;;21.39;98.90
26807;BME280;14380;49.910;6.792;2023-06-19T00:13:00;98246.44;;;21.22;99.36
26807;BME280;14380;49.910;6.792;2023-06-19T00:15:26;98249.63;;;21.17;100.00
26807;BME280;14380;49.910;6.792;2023-06-19T00:17:55;98257.06;;;20.80;100.00
26807;BME280;14380;49.910;6.792;2023-06-19T00:20:23;98263.28;;;20.81;100.00
26807;BME280;14380;49.910;6.792;2023-06-19T00:22:49;98266.34;;;20.94;100.00
26807;BME280;14380;49.910;6.792;2023-06-19T00:25:17;98267.19;;;20.95;100.00
26807;BME280;14380;49.910;6.792;2023-06-19T00:27:44;98281.16;;;20.72;100.00
26807;BME280;14380;49.910;6.792;2023-06-19T00:30:13;98282.31;;;20.61;100.00
26807;BME280;14380;49.910;6.792;2023-06-19T00:32:39;98281.94;;;20.56;100.00
26807;BME280;14380;49.910;6.792;2023-06-19T00:35:14;98283.34;;;20.69;100.00
26807;BME280;14380;49.910;6.792;2023-06-19T00:37:41;98292.22;;;20.69;100.00
26807;BME280;14380;49.910;6.792;2023-06-19T00:40:19;98294.03;;;20.60;100.00
26807;BME280;14380;49.910;6.792;2023-06-19T00:42:48;98290.38;;;20.70;100.00
26807;BME280;14380;49.910;6.792;2023-06-19T00:45:16;98297.25;;;20.72;100.00
26807;BME280;14380;49.910;6.792;2023-06-19T00:47:43;98292.66;;;20.56;100.00
26807;BME280;14380;49.910;6.792;2023-06-19T00:50:10;98290.31;;;20.53;100.00
26807;BME280;14380;49.910;6.792;2023-06-19T00:52:37;98287.66;;;20.27;100.00
26807;BME280;14380;49.910;6.792;2023-06-19T00:55:05;98289.81;;;20.58;100.00
26807;BME280;14380;49.910;6.792;2023-06-19T00:57:34;98293.34;;;20.58;100.00
26807;BME280;14380;49.910;6.792;2023-06-19T01:00:02;98284.94;;;20.53;100.00
26807;BME280;14380;49.910;6.792;2023-06-19T01:02:31;98294.00;;;20.26;100.00
26807;BME280;14380;49.910;6.792;2023-06-19T01:04:57;98287.13;;;20.23;100.00
26807;BME280;14380;49.910;6.792;2023-06-19T01:07:29;98286.03;;;20.34;100.00
26807;BME280;14380;49.910;6.792;2023-06-19T01:10:02;98286.78;;;20.53;100.00
26807;BME280;14380;49.910;6.792;2023-06-19T01:12:36;98282.53;;;20.42;100.00
26807;BME280;14380;49.910;6.792;2023-06-19T01:15:08;98287.25;;;20.48;100.00
26807;BME280;14380;49.910;6.792;2023-06-19T01:17:37;98278.28;;;20.31;100.00
26807;BME280;14380;49.910;6.792;2023-06-19T01:20:05;98281.72;;;20.41;100.00
26807;BME280;14380;49.910;6.792;2023-06-19T01:22:37;98286.13;;;20.24;100.00
26807;BME280;14380;49.910;6.792;2023-06-19T01:25:05;98284.38;;;20.41;100.00
26807;BME280;14380;49.910;6.792;2023-06-19T01:27:33;98282.16;;;20.28;100.00
26807;BME280;14380;49.910;6.792;2023-06-19T01:30:01;98281.16;;;20.29;100.00
26807;BME280;14380;49.910;6.792;2023-06-19T01:32:33;98294.22;;;20.32;100.00
26807;BME280;14380;49.910;6.792;2023-06-19T01:35:02;98296.72;;;20.60;100.00
26807;BME280;14380;49.910;6.792;2023-06-19T01:37:32;98303.00;;;20.77;100.00
26807;BME280;14380;49.910;6.792;2023-06-19T01:40:04;98303.00;;;20.77;100.00
26807;BME280;14380;49.910;6.792;2023-06-19T01:42:37;98316.97;;;20.89;100.00
26807;BME280;14380;49.910;6.792;2023-06-19T01:45:05;98319.94;;;20.78;100.00
26807;BME280;14380;49.910;6.792;2023-06-19T01:47:32;98317.47;;;20.85;100.00
26807;BME280;14380;49.910;6.792;2023-06-19T01:49:59;98319.22;;;20.76;100.00
26807;BME280;14380;49.910;6.792;2023-06-19T01:52:26;98320.84;;;20.87;100.00
26807;BME280;14380;49.910;6.792;2023-06-19T01:54:53;98327.53;;;20.83;100.00
26807;BME280;14380;49.910;6.792;2023-06-19T01:57:21;98330.81;;;20.76;100.00
26807;BME280;14380;49.910;6.792;2023-06-19T01:59:49;98335.25;;;20.86;100.00
26807;BME280;14380;49.910;6.792;2023-06-19T02:02:16;98344.88;;;20.70;100.00
26807;BME280;14380;49.910;6.792;2023-06-19T02:04:42;98353.13;;;20.77;100.00
26807;BME280;14380;49.910;6.792;2023-06-19T02:07:09;98356.97;;;20.74;100.00
26807;BME280;14380;49.910;6.792;2023-06-19T02:09:37;98357.78;;;20.67;100.00
26807;BME280;14380;49.910;6.792;2023-06-19T02:12:05;98364.97;;;20.66;100.00
26807;BME280;14380;49.910;6.792;2023-06-19T02:14:33;98365.59;;;20.60;100.00
26807;BME280;14380;49.910;6.792;2023-06-19T02:16:59;98367.78;;;20.56;100.00
26807;BME280;14380;49.910;6.792;2023-06-19T02:19:26;98365.22;;;20.55;100.00
26807;BME280;14380;49.910;6.792;2023-06-19T02:21:52;98366.97;;;20.64;100.00
26807;BME280;14380;49.910;6.792;2023-06-19T02:24:19;98373.56;;;20.70;100.00
26807;BME280;14380;49.910;6.792;2023-06-19T02:26:45;98372.28;;;20.56;100.00
26807;BME280;14380;49.910;6.792;2023-06-19T02:29:12;98373.66;;;20.60;100.00
26807;BME280;14380;49.910;6.792;2023-06-19T02:31:40;98377.56;;;20.65;100.00
26807;BME280;14380;49.910;6.792;2023-06-19T02:34:07;98377.13;;;20.52;100.00
26807;BME280;14380;49.910;6.792;2023-06-19T02:36:34;98381.00;;;20.58;100.00
26807;BME280;14380;49.910;6.792;2023-06-19T02:39:01;98385.66;;;20.47;100.00
26807;BME280;14380;49.910;6.792;2023-06-19T02:41:28;98381.81;;;20.50;100.00
26807;BME280;14380;49.910;6.792;2023-06-19T02:43:54;98384.34;;;20.52;100.00
26807;BME280;14380;49.910;6.792;2023-06-19T02:46:21;98390.91;;;20.31;100.00
26807;BME280;14380;49.910;6.792;2023-06-19T02:48:49;98397.84;;;20.42;100.00
26807;BME280;14380;49.910;6.792;2023-06-19T02:51:15;98397.25;;;20.30;100.00
26807;BME280;14380;49.910;6.792;2023-06-19T02:53:42;98408.97;;;20.29;100.00
26807;BME280;14380;49.910;6.792;2023-06-19T02:56:09;98413.88;;;20.33;100.00
26807;BME280;14380;49.910;6.792;2023-06-19T02:58:35;98415.84;;;20.05;100.00
26807;BME280;14380;49.910;6.792;2023-06-19T03:01:02;98405.72;;;20.17;100.00
26807;BME280;14380;49.910;6.792;2023-06-19T03:03:32;98407.63;;;20.06;100.00
26807;BME280;14380;49.910;6.792;2023-06-19T03:06:04;98408.78;;;20.22;100.00
26807;BME280;14380;49.910;6.792;2023-06-19T03:08:31;98414.69;;;20.08;100.00
26807;BME280;14380;49.910;6.792;2023-06-19T03:10:57;98410.91;;;20.18;100.00
26807;BME280;14380;49.910;6.792;2023-06-19T03:13:24;98421.56;;;20.10;100.00
26807;BME280;14380;49.910;6.792;2023-06-19T03:15:51;98424.47;;;20.17;100.00
26807;BME280;14380;49.910;6.792;2023-06-19T03:18:18;98425.91;;;20.11;100.00
26807;BME280;14380;49.910;6.792;2023-06-19T03:20:44;98435.63;;;20.12;100.00
26807;BME280;14380;49.910;6.792;2023-06-19T03:23:12;98445.00;;;20.08;100.00
26807;BME280;14380;49.910;6.792;2023-06-19T03:25:39;98448.28;;;19.84;100.00
26807;BME280;14380;49.910;6.792;2023-06-19T03:28:08;98453.28;;;19.97;100.00
26807;BME280;14380;49.910;6.792;2023-06-19T03:30:34;98450.97;;;20.20;100.00
26807;BME280;14380;49.910;6.792;2023-06-19T03:33:01;98453.19;;;20.06;100.00
26807;BME280;14380;49.910;6.792;2023-06-19T03:35:27;98452.88;;;20.10;100.00
26807;BME280;14380;49.910;6.792;2023-06-19T03:37:55;98454.28;;;20.14;100.00
26807;BME280;14380;49.910;6.792;2023-06-19T03:40:23;98459.75;;;20.12;100.00
26807;BME280;14380;49.910;6.792;2023-06-19T03:42:50;98459.75;;;20.12;100.00
26807;BME280;14380;49.910;6.792;2023-06-19T03:45:16;98466.28;;;19.91;100.00
26807;BME280;14380;49.910;6.792;2023-06-19T03:47:43;98464.78;;;20.07;100.00
26807;BME280;14380;49.910;6.792;2023-06-19T03:50:09;98474.84;;;20.13;100.00
26807;BME280;14380;49.910;6.792;2023-06-19T03:52:36;98469.13;;;20.08;100.00
26807;BME280;14380;49.910;6.792;2023-06-19T03:55:03;98463.59;;;20.10;100.00
26807;BME280;14380;49.910;6.792;2023-06-19T03:57:32;98467.66;;;20.14;100.00
26807;BME280;14380;49.910;6.792;2023-06-19T03:59:58;98471.13;;;20.24;100.00
26807;BME280;14380;49.910;6.792;2023-06-19T04:02:25;98467.75;;;20.22;100.00
26807;BME280;14380;49.910;6.792;2023-06-19T04:04:53;98469.28;;;19.88;100.00
26807;BME280;14380;49.910;6.792;2023-06-19T04:07:24;98467.75;;;20.04;100.00
26807;BME280;14380;49.910;6.792;2023-06-19T04:09:59;98472.13;;;20.05;100.00
26807;BME280;14380;49.910;6.792;2023-06-19T04:12:35;98469.16;;;20.34;100.00
26807;BME280;14380;49.910;6.792;2023-06-19T04:15:09;98464.38;;;20.38;100.00
26807;BME280;14380;49.910;6.792;2023-06-19T04:17:42;98465.47;;;20.54;100.00
26807;BME280;14380;49.910;6.792;2023-06-19T04:20:16;98473.84;;;20.50;100.00
26807;BME280;14380;49.910;6.792;2023-06-19T04:22:49;98471.31;;;20.49;100.00
26807;BME280;14380;49.910;6.792;2023-06-19T04:25:24;98470.66;;;20.73;100.00
26807;BME280;14380;49.910;6.792;2023-06-19T04:28:00;98472.34;;;20.74;100.00
26807;BME280;14380;49.910;6.792;2023-06-19T04:30:33;98474.56;;;20.79;100.00
26807;BME280;14380;49.910;6.792;2023-06-19T04:33:07;98482.88;;;20.31;100.00
26807;BME280;14380;49.910;6.792;2023-06-19T04:35:38;98481.78;;;20.60;100.00
26807;BME280;14380;49.910;6.792;2023-06-19T04:38:12;98491.19;;;20.38;100.00
26807;BME280;14380;49.910;6.792;2023-06-19T04:40:44;98479.03;;;20.52;100.00
26807;BME280;14380;49.910;6.792;2023-06-19T04:43:30;98472.88;;;20.15;100.00
26807;BME280;14380;49.910;6.792;2023-06-19T04:46:03;98478.22;;;20.52;100.00
26807;BME280;14380;49.910;6.792;2023-06-19T04:48:34;98485.69;;;20.66;100.00
26807;BME280;14380;49.910;6.792;2023-06-19T04:51:07;98488.47;;;20.56;100.00
26807;BME280;14380;49.910;6.792;2023-06-19T04:53:33;98489.28;;;20.57;100.00
26807;BME280;14380;49.910;6.792;2023-06-19T04:56:00;98491.00;;;20.40;100.00
26807;BME280;14380;49.910;6.792;2023-06-19T04:58:28;98495.75;;;20.46;100.00
26807;BME280;14380;49.910;6.792;2023-06-19T05:00:55;98499.94;;;20.67;100.00
26807;BME280;14380;49.910;6.792;2023-06-19T05:03:25;98499.75;;;20.42;100.00
26807;BME280;14380;49.910;6.792;2023-06-19T05:05:51;98501.03;;;20.56;100.00
26807;BME280;14380;49.910;6.792;2023-06-19T05:08:18;98497.34;;;20.75;100.00
26807;BME280;14380;49.910;6.792;2023-06-19T05:10:45;98505.03;;;20.52;100.00
26807;BME280;14380;49.910;6.792;2023-06-19T05:13:12;98500.41;;;20.80;100.00
26807;BME280;14380;49.910;6.792;2023-06-19T05:15:40;98516.44;;;20.72;100.00
26807;BME280;14380;49.910;6.792;2023-06-19T05:18:07;98511.72;;;20.47;100.00
26807;BME280;14380;49.910;6.792;2023-06-19T05:20:34;98505.38;;;20.75;100.00
26807;BME280;14380;49.910;6.792;2023-06-19T05:23:01;98507.31;;;20.83;100.00
26807;BME280;14380;49.910;6.792;2023-06-19T05:25:28;98501.78;;;21.10;100.00
26807;BME280;14380;49.910;6.792;2023-06-19T05:27:55;98499.72;;;21.04;100.00
26807;BME280;14380;49.910;6.792;2023-06-19T05:30:22;98506.25;;;21.28;100.00
26807;BME280;14380;49.910;6.792;2023-06-19T05:32:49;98505.75;;;21.33;100.00
26807;BME280;14380;49.910;6.792;2023-06-19T05:35:16;98511.56;;;21.20;100.00
26807;BME280;14380;49.910;6.792;2023-06-19T05:37:43;98502.53;;;21.64;100.00
26807;BME280;14380;49.910;6.792;2023-06-19T05:40:10;98495.69;;;21.69;100.00
26807;BME280;14380;49.910;6.792;2023-06-19T05:42:37;98506.97;;;21.47;100.00
26807;BME280;14380;49.910;6.792;2023-06-19T05:45:04;98497.84;;;21.66;100.00
26807;BME280;14380;49.910;6.792;2023-06-19T05:47:31;98514.06;;;21.91;100.00
26807;BME280;14380;49.910;6.792;2023-06-19T05:50:00;98506.47;;;21.86;100.00
26807;BME280;14380;49.910;6.792;2023-06-19T05:52:26;98507.47;;;21.77;100.00
26807;BME280;14380;49.910;6.792;2023-06-19T05:54:53;98504.44;;;22.48;100.00
26807;BME280;14380;49.910;6.792;2023-06-19T05:57:20;98497.16;;;22.90;100.00
26807;BME280;14380;49.910;6.792;2023-06-19T05:59:47;98505.69;;;23.10;100.00
26807;BME280;14380;49.910;6.792;2023-06-19T06:02:14;98513.28;;;22.40;100.00
26807;BME280;14380;49.910;6.792;2023-06-19T06:04:41;98515.81;;;22.41;100.00
26807;BME280;14380;49.910;6.792;2023-06-19T06:07:09;98522.72;;;22.27;100.00
26807;BME280;14380;49.910;6.792;2023-06-19T06:09:36;98525.56;;;22.26;100.00
26807;BME280;14380;49.910;6.792;2023-06-19T06:12:03;98529.09;;;22.18;100.00
26807;BME280;14380;49.910;6.792;2023-06-19T06:14:29;98519.34;;;22.17;100.00
26807;BME280;14380;49.910;6.792;2023-06-19T06:16:56;98524.69;;;22.09;100.00
26807;BME280;14380;49.910;6.792;2023-06-19T06:19:23;98523.69;;;22.18;100.00
26807;BME280;14380;49.910;6.792;2023-06-19T06:21:50;98524.56;;;21.67;100.00
26807;BME280;14380;49.910;6.792;2023-06-19T06:24:18;98520.34;;;22.41;100.00
26807;BME280;14380;49.910;6.792;2023-06-19T06:26:44;98523.38;;;22.38;100.00
26807;BME280;14380;49.910;6.792;2023-06-19T06:29:11;98532.28;;;22.22;100.00
26807;BME280;14380;49.910;6.792;2023-06-19T06:31:38;98535.13;;;22.20;100.00
26807;BME280;14380;49.910;6.792;2023-06-19T06:34:06;98538.97;;;22.18;100.00
26807;BME280;14380;49.910;6.792;2023-06-19T06:36:33;98550.72;;;22.08;100.00
26807;BME280;14380;49.910;6.792;2023-06-19T06:39:00;98551.63;;;22.34;100.00
26807;BME280;14380;49.910;6.792;2023-06-19T06:41:28;98552.63;;;22.33;100.00
26807;BME280;14380;49.910;6.792;2023-06-19T06:43:55;98553.38;;;22.68;100.00
26807;BME280;14380;49.910;6.792;2023-06-19T06:46:21;98555.22;;;22.67;100.00
26807;BME280;14380;49.910;6.792;2023-06-19T06:48:49;98554.72;;;22.64;100.00
26807;BME280;14380;49.910;6.792;2023-06-19T06:51:16;98553.19;;;22.69;100.00
26807;BME280;14380;49.910;6.792;2023-06-19T06:53:43;98551.16;;;23.69;100.00
26807;BME280;14380;49.910;6.792;2023-06-19T06:56:10;98553.94;;;23.53;100.00
26807;BME280;14380;49.910;6.792;2023-06-19T06:58:39;98552.00;;;23.78;93.79
26807;BME280;14380;49.910;6.792;2023-06-19T07:01:06;98551.25;;;24.24;93.21
26807;BME280;14380;49.910;6.792;2023-06-19T07:03:33;98552.75;;;23.95;96.24
26807;BME280;14380;49.910;6.792;2023-06-19T07:06:01;98559.72;;;23.81;94.49
26807;BME280;14380;49.910;6.792;2023-06-19T07:08:28;98572.50;;;23.31;93.68
26807;BME280;14380;49.910;6.792;2023-06-19T07:10:55;98565.00;;;23.66;94.79
26807;BME280;14380;49.910;6.792;2023-06-19T07:13:22;98571.22;;;23.75;93.21
26807;BME280;14380;49.910;6.792;2023-06-19T07:15:50;98577.47;;;24.39;91.75
26807;BME280;14380;49.910;6.792;2023-06-19T07:18:17;98574.19;;;24.98;87.45
26807;BME280;14380;49.910;6.792;2023-06-19T07:20:43;98582.03;;;25.08;84.90
26807;BME280;14380;49.910;6.792;2023-06-19T07:23:10;98582.88;;;24.62;83.21
26807;BME280;14380;49.910;6.792;2023-06-19T07:25:37;98576.97;;;24.35;86.36
26807;BME280;14380;49.910;6.792;2023-06-19T07:28:04;98587.63;;;24.05;88.08
26807;BME280;14380;49.910;6.792;2023-06-19T07:30:31;98589.06;;;24.16;88.82
26807;BME280;14380;49.910;6.792;2023-06-19T07:32:59;98601.56;;;24.40;84.82
26807;BME280;14380;49.910;6.792;2023-06-19T07:35:25;98598.28;;;23.90;86.64
26807;BME280;14380;49.910;6.792;2023-06-19T07:37:52;98587.94;;;24.42;85.00
26807;BME280;14380;49.910;6.792;2023-06-19T07:40:20;98598.38;;;24.13;86.83
26807;BME280;14380;49.910;6.792;2023-06-19T07:42:47;98589.16;;;24.31;85.18
26807;BME280;14380;49.910;6.792;2023-06-19T07:45:14;98592.34;;;24.34;85.69
26807;BME280;14380;49.910;6.792;2023-06-19T07:47:41;98602.41;;;24.17;84.52
26807;BME280;14380;49.910;6.792;2023-06-19T07:50:11;98602.16;;;23.87;84.89
26807;BME280;14380;49.910;6.792;2023-06-19T07:52:38;98592.66;;;24.63;83.53
26807;BME280;14380;49.910;6.792;2023-06-19T07:55:05;98595.78;;;24.98;83.72
26807;BME280;14380;49.910;6.792;2023-06-19T07:57:32;98595.09;;;25.19;80.32
26807;BME280;14380;49.910;6.792;2023-06-19T08:00:01;98596.31;;;26.07;81.98
26807;BME280;14380;49.910;6.792;2023-06-19T08:02:32;98600.25;;;26.04;77.46
26807;BME280;14380;49.910;6.792;2023-06-19T08:04:59;98604.91;;;25.35;80.06
26807;BME280;14380;49.910;6.792;2023-06-19T08:07:27;98601.84;;;25.00;81.08
26807;BME280;14380;49.910;6.792;2023-06-19T08:09:54;98614.88;;;24.97;80.92
26807;BME280;14380;49.910;6.792;2023-06-19T08:12:21;98602.56;;;24.71;81.39
26807;BME280;14380;49.910;6.792;2023-06-19T08:14:47;98609.22;;;24.60;82.37
26807;BME280;14380;49.910;6.792;2023-06-19T08:17:15;98612.28;;;24.57;82.02
26807;BME280;14380;49.910;6.792;2023-06-19T08:19:42;98615.94;;;24.72;81.69
26807;BME280;14380;49.910;6.792;2023-06-19T08:22:09;98601.84;;;25.00;79.65
26807;BME280;14380;49.910;6.792;2023-06-19T08:24:37;98595.25;;;25.86;78.59
26807;BME280;14380;49.910;6.792;2023-06-19T08:27:06;98598.31;;;25.38;78.05
26807;BME280;14380;49.910;6.792;2023-06-19T08:29:33;98598.88;;;25.48;78.02
26807;BME280;14380;49.910;6.792;2023-06-19T08:31:59;98600.31;;;25.59;77.24
26807;BME280;14380;49.910;6.792;2023-06-19T08:34:27;98598.41;;;25.45;77.65
26807;BME280;14380;49.910;6.792;2023-06-19T08:36:54;98601.13;;;25.75;76.75
26807;BME280;14380;49.910;6.792;2023-06-19T08:39:21;98598.50;;;25.51;77.01
26807;BME280;14380;49.910;6.792;2023-06-19T08:41:49;98601.88;;;25.53;77.38
26807;BME280;14380;49.910;6.792;2023-06-19T08:44:18;98594.03;;;25.74;76.25
26807;BME280;14380;49.910;6.792;2023-06-19T08:46:45;98595.59;;;25.38;77.15
26807;BME280;14380;49.910;6.792;2023-06-19T08:49:12;98601.63;;;25.25;78.56
26807;BME280;14380;49.910;6.792;2023-06-19T08:51:40;98597.41;;;25.61;76.71
26807;BME280;14380;49.910;6.792;2023-06-19T08:54:07;98598.78;;;25.57;77.77
26807;BME280;14380;49.910;6.792;2023-06-19T08:56:35;98600.19;;;25.52;77.98
26807;BME280;14380;49.910;6.792;2023-06-19T08:59:12;98594.78;;;25.52;75.59
26807;BME280;14380;49.910;6.792;2023-06-19T09:01:39;98598.34;;;25.15;77.14
26807;BME280;14380;49.910;6.792;2023-06-19T09:04:10;98605.09;;;24.95;76.28
26807;BME280;14380;49.910;6.792;2023-06-19T09:06:46;98607.03;;;25.40;74.26
26807;BME280;14380;49.910;6.792;2023-06-19T09:09:13;98605.13;;;25.49;75.27
26807;BME280;14380;49.910;6.792;2023-06-19T09:11:40;98602.25;;;25.12;75.06
26807;BME280;14380;49.910;6.792;2023-06-19T09:14:08;98601.47;;;25.42;76.58
26807;BME280;14380;49.910;6.792;2023-06-19T09:16:41;98603.53;;;25.69;76.05
26807;BME280;14380;49.910;6.792;2023-06-19T09:19:07;98604.56;;;25.68;75.35
26807;BME280;14380;49.910;6.792;2023-06-19T09:21:36;98607.84;;;25.64;76.56
26807;BME280;14380;49.910;6.792;2023-06-19T09:24:05;98603.00;;;26.41;74.14
26807;BME280;14380;49.910;6.792;2023-06-19T09:26:32;98596.47;;;26.35;73.27
26807;BME280;14380;49.910;6.792;2023-06-19T09:29:09;98599.88;;;26.22;75.82
26807;BME280;14380;49.910;6.792;2023-06-19T09:31:36;98607.56;;;26.19;74.05
26807;BME280;14380;49.910;6.792;2023-06-19T09:34:05;98601.06;;;26.56;73.53
26807;BME280;14380;49.910;6.792;2023-06-19T09:36:33;98594.16;;;26.32;74.13
26807;BME280;14380;49.910;6.792;2023-06-19T09:39:02;98601.78;;;26.43;73.28
26807;BME280;14380;49.910;6.792;2023-06-19T09:41:30;98598.28;;;26.86;73.69
26807;BME280;14380;49.910;6.792;2023-06-19T09:43:58;98607.25;;;26.87;73.63
26807;BME280;14380;49.910;6.792;2023-06-19T09:46:28;98599.91;;;26.66;73.11
26807;BME280;14380;49.910;6.792;2023-06-19T09:48:58;98590.91;;;26.80;72.08
26807;BME280;14380;49.910;6.792;2023-06-19T09:51:31;98598.13;;;26.73;72.54
26807;BME280;14380;49.910;6.792;2023-06-19T09:53:59;98588.25;;;27.37;72.33
26807;BME280;14380;49.910;6.792;2023-06-19T09:56:28;98588.22;;;27.66;71.66
26807;BME280;14380;49.910;6.792;2023-06-19T09:58:57;98585.69;;;28.06;70.47
26807;BME280;14380;49.910;6.792;2023-06-19T10:01:27;98589.59;;;27.48;70.90
26807;BME280;14380;49.910;6.792;2023-06-19T10:04:05;98591.31;;;27.56;68.25
26807;BME280;14380;49.910;6.792;2023-06-19T10:06:42;98590.59;;;26.90;71.40
26807;BME280;14380;49.910;6.792;2023-06-19T10:09:10;98593.53;;;26.73;72.58
26807;BME280;14380;49.910;6.792;2023-06-19T10:11:48;98597.91;;;26.90;71.26
26807;BME280;14380;49.910;6.792;2023-06-19T10:14:16;98597.28;;;26.72;71.43
26807;BME280;14380;49.910;6.792;2023-06-19T10:16:44;98601.25;;;26.92;75.45
26807;BME280;14380;49.910;6.792;2023-06-19T10:19:12;98595.47;;;26.80;72.38
26807;BME280;14380;49.910;6.792;2023-06-19T10:21:48;98593.69;;;26.65;71.66
26807;BME280;14380;49.910;6.792;2023-06-19T10:24:16;98586.44;;;26.72;72.13
26807;BME280;14380;49.910;6.792;2023-06-19T10:26:55;98573.03;;;27.71;69.10
26807;BME280;14380;49.910;6.792;2023-06-19T10:29:23;98576.38;;;28.15;67.48
26807;BME280;14380;49.910;6.792;2023-06-19T10:31:51;98572.69;;;27.88;68.70
26807;BME280;14380;49.910;6.792;2023-06-19T10:34:18;98574.34;;;27.47;68.04
26807;BME280;14380;49.910;6.792;2023-06-19T10:36:46;98578.84;;;27.05;70.17
26807;BME280;14380;49.910;6.792;2023-06-19T10:39:13;98575.66;;;27.01;70.19
26807;BME280;14380;49.910;6.792;2023-06-19T10:41:41;98575.22;;;26.54;72.43
26807;BME280;14380;49.910;6.792;2023-06-19T10:44:08;98566.59;;;26.87;69.39
26807;BME280;14380;49.910;6.792;2023-06-19T10:46:37;98550.44;;;27.57;69.56
26807;BME280;14380;49.910;6.792;2023-06-19T10:49:07;98551.78;;;28.30;66.79
26807;BME280;14380;49.910;6.792;2023-06-19T10:51:36;98559.88;;;27.68;67.52
26807;BME280;14380;49.910;6.792;2023-06-19T10:54:05;98561.16;;;27.72;67.91
26807;BME280;14380;49.910;6.792;2023-06-19T10:56:33;98558.38;;;28.08;69.89
26807;BME280;14380;49.910;6.792;2023-06-19T10:59:00;98567.09;;;27.96;66.03
26807;BME280;14380;49.910;6.792;2023-06-19T11:01:34;98567.91;;;28.59;67.41
26807;BME280;14380;49.910;6.792;2023-06-19T11:04:03;98555.78;;;27.86;64.40
26807;BME280;14380;49.910;6.792;2023-06-19T11:06:31;98559.72;;;28.32;65.39
26807;BME280;14380;49.910;6.792;2023-06-19T11:08:58;98560.94;;;28.16;66.45
26807;BME280;14380;49.910;6.792;2023-06-19T11:11:36;98556.38;;;28.30;67.30
26807;BME280;14380;49.910;6.792;2023-06-19T11:14:04;98568.13;;;28.57;62.87
26807;BME280;14380;49.910;6.792;2023-06-19T11:16:31;98552.03;;;28.42;61.84
26807;BME280;14380;49.910;6.792;2023-06-19T11:18:58;98558.53;;;29.15;63.10
26807;BME280;14380;49.910;6.792;2023-06-19T11:21:32;98553.75;;;29.11;63.40
26807;BME280;14380;49.910;6.792;2023-06-19T11:24:04;98561.72;;;28.78;62.60
26807;BME280;14380;49.910;6.792;2023-06-19T11:26:37;98552.91;;;29.37;62.70
26807;BME280;14380;49.910;6.792;2023-06-19T11:29:13;98549.75;;;29.33;63.23
26807;BME280;14380;49.910;6.792;2023-06-19T11:31:42;98552.13;;;29.82;62.73
26807;BME280;14380;49.910;6.792;2023-06-19T11:34:09;98564.84;;;28.82;62.66
26807;BME280;14380;49.910;6.792;2023-06-19T11:36:37;98553.09;;;29.42;64.08
26807;BME280;14380;49.910;6.792;2023-06-19T11:39:04;98558.75;;;29.27;63.36
26807;BME280;14380;49.910;6.792;2023-06-19T11:41:31;98552.06;;;29.23;64.22
26807;BME280;14380;49.910;6.792;2023-06-19T11:43:59;98554.38;;;29.26;61.04
26807;BME280;14380;49.910;6.792;2023-06-19T11:46:30;98553.06;;;29.49;62.79
26807;BME280;14380;49.910;6.792;2023-06-19T11:49:07;98553.91;;;29.36;63.09
26807;BME280;14380;49.910;6.792;2023-06-19T11:51:34;98545.25;;;29.79;62.74
26807;BME280;14380;49.910;6.792;2023-06-19T11:54:00;98548.13;;;30.37;62.04
26807;BME280;14380;49.910;6.792;2023-06-19T11:56:27;98547.47;;;29.96;61.64
26807;BME280;14380;49.910;6.792;2023-06-19T11:58:56;98556.03;;;30.45;59.21
26807;BME280;14380;49.910;6.792;2023-06-19T12:01:24;98546.75;;;29.62;60.44
26807;BME280;14380;49.910;6.792;2023-06-19T12:03:51;98546.75;;;29.68;60.39
26807;BME280;14380;49.910;6.792;2023-06-19T12:06:18;98544.97;;;28.95;60.94
26807;BME280;14380;49.910;6.792;2023-06-19T12:08:44;98548.97;;;29.85;60.14
26807;BME280;14380;49.910;6.792;2023-06-19T12:11:11;98537.47;;;29.90;59.56
26807;BME280;14380;49.910;6.792;2023-06-19T12:13:39;98529.41;;;30.47;61.54
26807;BME280;14380;49.910;6.792;2023-06-19T12:16:06;98532.63;;;30.69;61.23
26807;BME280;14380;49.910;6.792;2023-06-19T12:18:34;98536.41;;;29.97;60.52
26807;BME280;14380;49.910;6.792;2023-06-19T12:21:00;98529.91;;;30.37;59.17
26807;BME280;14380;49.910;6.792;2023-06-19T12:23:27;98527.56;;;30.41;61.32
26807;BME280;14380;49.910;6.792;2023-06-19T12:25:53;98524.25;;;30.00;59.36
26807;BME280;14380;49.910;6.792;2023-06-19T12:28:20;98517.03;;;30.19;61.03
26807;BME280;14380;49.910;6.792;2023-06-19T12:30:47;98518.97;;;29.53;60.03
26807;BME280;14380;49.910;6.792;2023-06-19T12:33:16;98516.16;;;29.73;60.54
26807;BME280;14380;49.910;6.792;2023-06-19T12:35:45;98511.56;;;29.67;61.67
26807;BME280;14380;49.910;6.792;2023-06-19T12:38:11;98509.31;;;29.57;62.71
26807;BME280;14380;49.910;6.792;2023-06-19T12:40:38;98514.38;;;29.47;62.51
26807;BME280;14380;49.910;6.792;2023-06-19T12:43:05;98514.59;;;29.38;60.97
26807;BME280;14380;49.910;6.792;2023-06-19T12:45:31;98523.81;;;29.24;64.05
26807;BME280;14380;49.910;6.792;2023-06-19T12:47:58;98521.94;;;29.31;62.10
26807;BME280;14380;49.910;6.792;2023-06-19T12:50:24;98525.28;;;29.27;60.29
26807;BME280;14380;49.910;6.792;2023-06-19T12:52:52;98519.66;;;29.01;63.00
26807;BME280;14380;49.910;6.792;2023-06-19T12:55:19;98522.75;;;29.38;61.64
26807;BME280;14380;49.910;6.792;2023-06-19T12:57:45;98520.03;;;29.45;61.13
26807;BME280;14380;49.910;6.792;2023-06-19T13:00:13;98516.47;;;29.45;61.19